Kirovskij, Russia
Current Conditions -  °F | °C
As of 10:00 AM on Thursday 29 Jan 2015 (Local Time) from UHWW Reporting Station
Few Clouds Few Clouds  
Wind Chill: -19°   Ceiling: Unl
Heat Index: -8°   Visibility: 6mi
Dew Point: -15°   Wind: 4mph
Humidity: 71%   Direction: NA
Pressure: 30.45"   Gusts: NA
Location:  45.09°N, 133.51°E
Report Text: UHWW 290000Z VRB02MPS 9999 FEW200 M22/M26 Q1031 NOSIG RMKQFE772/1029 25CLRD60
Loading
Personal Weather Stations






























Interactive Weather Map New forecast layout! Learn more

10-Day Weather Forecast

Advertisements
Track Severe Weather on mobile